createdAt,value
2018-09-08T00:00:16.224Z,2.60
2018-09-08T00:02:47.010Z,3.10
2018-09-08T00:05:24.530Z,3.27
2018-09-08T00:10:48.801Z,2.93
2018-09-08T00:13:22.719Z,3.43
2018-09-08T00:15:59.568Z,2.57
2018-09-08T00:21:16.654Z,2.73
2018-09-08T00:23:52.301Z,3.10
2018-09-08T00:26:27.816Z,3.37
2018-09-08T00:29:01.990Z,2.80
2018-09-08T00:31:33.265Z,2.87
2018-09-08T00:34:05.027Z,2.73
2018-09-08T00:36:38.551Z,2.80
2018-09-08T00:39:10.826Z,3.10
2018-09-08T00:41:41.650Z,3.00
2018-09-08T00:44:12.109Z,3.00
2018-09-08T00:46:44.109Z,2.63
2018-09-08T00:49:15.223Z,3.07
2018-09-08T00:51:45.756Z,2.90
2018-09-08T00:54:16.418Z,3.27
2018-09-08T00:56:46.848Z,2.93
2018-09-08T00:59:17.212Z,2.73
2018-09-08T01:01:47.754Z,2.60
2018-09-08T01:04:18.310Z,2.87
2018-09-08T01:06:52.481Z,3.50
2018-09-08T01:09:22.888Z,2.87
2018-09-08T01:11:54.678Z,2.90
2018-09-08T01:14:25.870Z,2.73
2018-09-08T01:16:56.389Z,3.10
2018-09-08T01:19:27.156Z,2.70
2018-09-08T01:21:57.660Z,3.37
2018-09-08T01:24:35.442Z,3.20
2018-09-08T01:27:08.089Z,3.13
2018-09-08T01:29:38.584Z,2.80
2018-09-08T01:32:14.469Z,3.47
2018-09-08T01:37:45.589Z,2.90
2018-09-08T01:40:18.120Z,3.03
2018-09-08T01:42:48.731Z,3.07
2018-09-08T01:45:19.501Z,2.50
2018-09-08T01:47:50.518Z,2.93
2018-09-08T01:50:20.991Z,2.70
2018-09-08T01:52:57.984Z,2.93
2018-09-08T01:55:42.627Z,2.80
2018-09-08T01:58:13.496Z,2.83
2018-09-08T02:00:44.273Z,3.40
2018-09-08T02:03:14.829Z,2.90
2018-09-08T02:05:53.473Z,2.97
2018-09-08T02:08:24.683Z,2.70
2018-09-08T02:10:55.057Z,2.83
2018-09-08T02:13:42.871Z,3.10
2018-09-08T02:16:14.370Z,2.80
2018-09-08T02:18:45.290Z,3.10
2018-09-08T02:21:27.403Z,3.23
2018-09-08T02:40:54.732Z,3.20
2018-09-08T02:46:35.590Z,2.90
2018-09-08T02:49:06.322Z,3.33
2018-09-08T02:54:45.267Z,2.50
2018-09-08T02:57:34.209Z,2.67
2018-09-08T03:00:02.957Z,2.97
2018-09-08T03:02:31.404Z,2.70
2018-09-08T03:04:59.859Z,2.63
2018-09-08T03:10:35.117Z,3.10
2018-09-08T03:13:30.791Z,3.43
2018-09-08T03:16:24.110Z,3.00
2018-09-08T03:18:52.904Z,3.40
2018-09-08T03:24:31.627Z,3.87
2018-09-08T03:27:00.487Z,3.03
2018-09-08T03:29:46.373Z,3.33
2018-09-08T03:32:15.402Z,3.70
2018-09-08T03:34:44.039Z,3.37
2018-09-08T03:37:12.694Z,2.83
2018-09-08T03:39:41.114Z,3.67
2018-09-08T03:42:30.683Z,3.37
2018-09-08T03:51:36.563Z,4.33
2018-09-08T04:02:59.723Z,3.93
2018-09-08T04:08:41.129Z,3.23
2018-09-08T04:17:22.513Z,3.23
2018-09-08T04:19:52.683Z,3.20
2018-09-08T04:22:26.980Z,3.20
2018-09-08T04:25:14.057Z,3.07
2018-09-08T04:28:02.984Z,2.90
2018-09-08T04:34:12.424Z,3.00
2018-09-08T04:36:43.298Z,2.40
2018-09-08T04:39:32.019Z,2.93
2018-09-08T04:42:02.397Z,3.00
2018-09-08T04:44:51.073Z,3.57
2018-09-08T04:47:21.299Z,3.00
2018-09-08T04:50:08.417Z,2.57
2018-09-08T04:53:06.895Z,2.67
2018-09-08T04:58:38.241Z,2.43
2018-09-08T05:01:27.390Z,2.30
2018-09-08T05:04:13.949Z,3.13
2018-09-08T05:06:44.001Z,3.00
2018-09-08T05:09:14.096Z,3.67
2018-09-08T05:11:44.800Z,4.23
2018-09-08T05:14:33.968Z,4.50
2018-09-08T05:20:15.330Z,3.30
2018-09-08T05:22:45.640Z,3.60
2018-09-08T05:25:16.094Z,3.40
2018-09-08T05:27:46.545Z,3.03
2018-09-08T05:30:16.755Z,2.83
2018-09-08T05:33:09.367Z,2.77
2018-09-08T05:35:57.778Z,2.80
2018-09-08T05:38:28.474Z,3.00
2018-09-08T05:44:08.718Z,3.03
2018-09-08T05:53:02.904Z,2.27
2018-09-08T05:55:33.179Z,2.20
2018-09-08T05:58:03.606Z,2.40
2018-09-08T06:00:34.268Z,1.63
2018-09-08T06:06:14.917Z,2.20
2018-09-08T06:08:45.589Z,1.70
2018-09-08T06:11:16.039Z,2.23
2018-09-08T06:13:46.152Z,1.60
2018-09-08T06:19:57.456Z,2.00
2018-09-08T06:25:37.810Z,1.43
2018-09-08T06:28:08.670Z,1.60
2018-09-08T06:33:46.963Z,1.40
2018-09-08T06:36:17.381Z,1.30
2018-09-08T06:38:47.503Z,1.37
2018-09-08T06:57:07.451Z,1.20
2018-09-08T06:59:37.573Z,1.27
2018-09-08T18:15:15.954Z,1.90
2018-09-08T18:43:22.868Z,1.80
2018-09-08T18:46:19.266Z,1.47
2018-09-08T18:48:50.029Z,1.30
2018-09-08T19:04:16.099Z,2.00
2018-09-08T19:13:31.204Z,1.40
2018-09-08T19:16:16.728Z,1.77
2018-09-08T19:19:01.744Z,1.73
2018-09-08T19:21:51.284Z,1.40
2018-09-08T19:34:05.985Z,1.30
2018-09-08T19:40:02.437Z,1.53
2018-09-08T19:42:46.812Z,1.43
2018-09-08T19:45:17.496Z,1.80
2018-09-08T19:51:14.289Z,1.90
2018-09-08T20:03:15.416Z,2.03
2018-09-08T20:09:16.652Z,1.60
2018-09-08T20:18:21.343Z,1.63
2018-09-08T20:21:10.626Z,1.53
2018-09-08T20:23:59.284Z,1.47
2018-09-08T20:29:52.129Z,2.13
2018-09-08T20:35:32.451Z,1.50
2018-09-08T20:38:25.786Z,1.10
2018-09-08T20:44:17.337Z,1.10
2018-09-08T20:50:21.040Z,1.57
2018-09-08T20:56:12.244Z,1.10
2018-09-08T20:58:43.098Z,1.30
2018-09-08T21:01:13.851Z,1.53
2018-09-08T21:04:02.995Z,1.30
2018-09-08T21:06:33.962Z,1.70
2018-09-08T21:09:23.613Z,1.50
2018-09-08T21:12:08.571Z,1.10
2018-09-08T21:21:13.165Z,1.73
2018-09-08T21:23:43.808Z,1.50
2018-09-08T21:26:14.371Z,1.40
2018-09-08T21:35:05.815Z,1.40
2018-09-08T21:37:58.953Z,1.43
2018-09-08T21:40:29.229Z,1.20
2018-09-08T21:43:17.836Z,1.20
2018-09-08T21:46:01.346Z,1.77
2018-09-08T21:48:31.602Z,1.50
2018-09-08T21:54:28.836Z,1.20
2018-09-08T22:06:42.845Z,1.30
2018-09-08T22:09:29.748Z,1.30
2018-09-08T22:12:18.158Z,1.33
2018-09-08T22:15:07.026Z,1.30
2018-09-08T22:23:59.812Z,1.37
2018-09-08T22:29:52.653Z,1.10
2018-09-08T22:32:36.334Z,1.10
2018-09-08T22:38:35.501Z,1.17
2018-09-08T22:41:06.181Z,1.20
2018-09-08T22:47:01.747Z,1.20
2018-09-08T22:49:48.058Z,1.70
2018-09-08T22:55:29.283Z,1.40
2018-09-08T22:58:15.580Z,1.10
2018-09-08T23:04:06.853Z,1.20
2018-09-08T23:13:12.468Z,1.47
2018-09-08T23:16:01.961Z,1.20
2018-09-08T23:18:50.974Z,1.37
2018-09-08T23:21:21.146Z,1.70
2018-09-08T23:27:22.427Z,1.53
2018-09-08T23:36:07.476Z,1.20
2018-09-08T23:42:03.289Z,1.73
2018-09-08T23:44:51.896Z,1.50
2018-09-08T23:50:45.617Z,1.30
2018-09-08T23:56:35.289Z,1.80
